Time;durP1;ratioP1;P1;durP2;ratioP2;P2;SDS_P1;SDS_P2;PMS_P1;PMS_P2;Temp;Humidity;BMP_temperature;BMP_pressure;BME280_temperature;BME280_humidity;BME280_pressure;Samples;Min_cycle;Max_cycle;Signal;HPM_P1;HPM_P2
2020/12/27 00:01:06;;;;;;;6.63;6.03;;;6.30;99.90;;;;;;5059640;28;20568;-68
2020/12/27 00:03:32;;;;;;;6.97;6.27;;;6.30;99.90;;;;;;5059651;28;20199;-69
2020/12/27 00:06:00;;;;;;;8.67;6.80;;;6.30;99.90;;;;;;5059833;28;20199;-69
2020/12/27 00:08:26;;;;;;;8.23;6.77;;;6.30;99.90;;;;;;5054165;28;20703;-68
2020/12/27 00:10:52;;;;;;;7.87;5.70;;;6.30;99.90;;;;;;5054464;28;20195;-68
2020/12/27 00:13:19;;;;;;;8.57;6.83;;;6.30;99.90;;;;;;5050448;28;20199;-69
2020/12/27 00:15:45;;;;;;;6.93;6.10;;;6.30;99.90;;;;;;5050938;28;20253;-67
2020/12/27 00:18:12;;;;;;;8.10;6.07;;;6.30;99.90;;;;;;5046321;28;20203;-68
2020/12/27 00:20:38;;;;;;;7.33;6.30;;;6.40;99.90;;;;;;5050533;28;20767;-67
2020/12/27 00:23:06;;;;;;;7.97;6.40;;;6.40;99.90;;;;;;5049976;28;20659;-67
2020/12/27 00:25:32;;;;;;;6.80;6.10;;;6.40;99.90;;;;;;5048485;28;20207;-66
2020/12/27 00:27:59;;;;;;;7.43;5.70;;;6.40;99.90;;;;;;5047043;28;20204;-67
2020/12/27 00:30:25;;;;;;;6.73;5.73;;;6.50;99.90;;;;;;5049594;28;20206;-67
2020/12/27 00:32:52;;;;;;;6.97;6.03;;;6.40;99.90;;;;;;5047846;28;20195;-67
2020/12/27 00:35:18;;;;;;;7.40;5.47;;;6.40;99.90;;;;;;5049645;28;20207;-68
2020/12/27 00:37:45;;;;;;;7.60;6.37;;;6.50;99.90;;;;;;5050243;28;20230;-68
2020/12/27 00:40:12;;;;;;;8.60;5.73;;;6.50;99.90;;;;;;5048647;28;20200;-68
2020/12/27 00:42:38;;;;;;;7.40;6.13;;;6.50;99.90;;;;;;5045060;28;20207;-68
2020/12/27 00:45:05;;;;;;;6.80;5.10;;;6.50;99.90;;;;;;5046395;28;20202;-67
2020/12/27 00:47:32;;;;;;;7.03;6.20;;;6.50;99.90;;;;;;5047112;28;20214;-68
2020/12/27 00:50:00;;;;;;;9.10;6.23;;;6.50;99.90;;;;;;5045615;28;20204;-68
2020/12/27 00:52:26;;;;;;;6.17;5.30;;;6.50;99.90;;;;;;5048458;28;20301;-67
2020/12/27 00:54:53;;;;;;;8.37;5.90;;;6.50;99.90;;;;;;5048526;28;20199;-66
2020/12/27 00:57:20;;;;;;;8.30;6.10;;;6.50;99.90;;;;;;5048858;28;20226;-67
2020/12/27 00:59:46;;;;;;;8.13;6.67;;;6.40;99.90;;;;;;5049835;28;20878;-67
2020/12/27 01:02:14;;;;;;;9.50;5.83;;;6.40;99.90;;;;;;5047303;28;20729;-65
2020/12/27 01:04:40;;;;;;;6.93;6.23;;;6.40;99.90;;;;;;5048419;28;20304;-67
2020/12/27 01:07:07;;;;;;;10.23;6.40;;;6.40;99.90;;;;;;5050922;28;20667;-66
2020/12/27 01:09:33;;;;;;;7.87;6.33;;;6.40;99.90;;;;;;5048534;28;20226;-67
2020/12/27 01:12:00;;;;;;;8.07;6.30;;;6.40;99.90;;;;;;5046753;28;20203;-67
2020/12/27 01:14:27;;;;;;;8.20;6.50;;;6.40;99.90;;;;;;5048229;28;20596;-67
2020/12/27 01:16:54;;;;;;;9.63;6.17;;;6.40;99.90;;;;;;5048259;28;20243;-68
2020/12/27 01:19:20;;;;;;;8.70;5.73;;;6.30;99.90;;;;;;5048535;28;20196;-68
2020/12/27 01:21:47;;;;;;;9.23;6.37;;;6.30;99.90;;;;;;5046582;28;20203;-67
2020/12/27 01:24:14;;;;;;;8.83;6.67;;;6.30;99.90;;;;;;5049277;28;20249;-66
2020/12/27 01:26:40;;;;;;;7.80;6.43;;;6.30;99.90;;;;;;5048633;28;20207;-65
2020/12/27 01:29:06;;;;;;;8.67;6.97;;;6.30;99.90;;;;;;5044078;28;20229;-68
2020/12/27 01:31:34;;;;;;;9.80;6.93;;;6.30;99.90;;;;;;5044040;28;20249;-66
2020/12/27 01:34:00;;;;;;;7.67;6.73;;;6.30;99.90;;;;;;5047647;28;20218;-67
2020/12/27 01:36:29;;;;;;;8.90;7.60;;;6.30;99.90;;;;;;5048757;28;20853;-66
2020/12/27 01:38:56;;;;;;;10.30;7.67;;;6.30;99.90;;;;;;5056674;28;20207;-64
2020/12/27 01:41:22;;;;;;;10.03;6.93;;;6.30;99.90;;;;;;5057723;28;20221;-67
2020/12/27 01:44:04;;;;;;;6.67;5.50;;;6.30;99.90;;;;;;5060214;28;22267;-70
2020/12/27 01:46:31;;;;;;;8.63;7.57;;;6.20;99.90;;;;;;5047635;28;20206;-67
2020/12/27 01:48:59;;;;;;;11.77;7.23;;;6.30;99.90;;;;;;5045471;28;20202;-67
2020/12/27 01:51:25;;;;;;;8.27;6.93;;;6.30;99.90;;;;;;5049374;28;20206;-68
2020/12/27 01:53:52;;;;;;;9.57;6.03;;;6.30;99.90;;;;;;5054526;28;20269;-68
2020/12/27 01:56:21;;;;;;;7.80;6.97;;;6.30;99.90;;;;;;5049564;28;20239;-67
2020/12/27 01:58:51;;;;;;;7.73;6.40;;;6.30;99.90;;;;;;5052937;28;20202;-67
2020/12/27 02:01:18;;;;;;;8.13;6.00;;;6.30;99.90;;;;;;5051679;28;20252;-66
2020/12/27 02:03:45;;;;;;;7.73;5.70;;;6.30;99.90;;;;;;5053256;28;20199;-67
2020/12/27 02:06:12;;;;;;;8.83;6.27;;;6.30;99.90;;;;;;5055693;28;20265;-67
2020/12/27 02:08:39;;;;;;;7.27;6.03;;;6.30;99.90;;;;;;5048478;28;20239;-67
2020/12/27 02:11:05;;;;;;;7.17;6.20;;;6.40;99.90;;;;;;5051099;28;20214;-68
2020/12/27 02:13:32;;;;;;;7.90;6.07;;;6.40;99.90;;;;;;5051464;28;20203;-67
2020/12/27 02:15:58;;;;;;;8.30;6.07;;;6.40;99.90;;;;;;5053690;28;20272;-67
2020/12/27 02:18:25;;;;;;;7.13;5.90;;;6.40;99.90;;;;;;5049010;28;20253;-66
2020/12/27 02:20:52;;;;;;;5.73;4.93;;;6.40;99.90;;;;;;5050630;28;20229;-68
2020/12/27 02:23:20;;;;;;;6.83;5.17;;;6.40;99.90;;;;;;5052622;28;20210;-67
2020/12/27 02:25:47;;;;;;;7.20;6.00;;;6.40;99.90;;;;;;5052285;28;20203;-68
2020/12/27 02:28:14;;;;;;;7.27;5.87;;;6.50;99.90;;;;;;5052308;28;20210;-66
2020/12/27 02:30:40;;;;;;;5.77;5.27;;;6.50;99.90;;;;;;5053109;28;20203;-67
2020/12/27 02:33:07;;;;;;;4.53;4.10;;;6.50;99.90;;;;;;5048784;28;20241;-67
2020/12/27 02:35:33;;;;;;;7.53;5.03;;;6.50;99.90;;;;;;5048730;28;20218;-67
2020/12/27 02:38:00;;;;;;;7.47;5.60;;;6.50;99.90;;;;;;5051526;28;20209;-67
2020/12/27 02:40:26;;;;;;;7.10;5.93;;;6.50;99.90;;;;;;5050010;28;20465;-65
2020/12/27 02:42:53;;;;;;;6.20;5.10;;;6.50;99.90;;;;;;5051638;28;20195;-66
2020/12/27 02:45:20;;;;;;;6.70;5.17;;;6.50;99.90;;;;;;5049506;28;20606;-66
2020/12/27 02:47:47;;;;;;;5.20;4.40;;;6.50;99.90;;;;;;5049840;28;20207;-67
2020/12/27 02:50:14;;;;;;;5.07;4.50;;;6.60;99.90;;;;;;5051680;28;20214;-66
2020/12/27 02:52:41;;;;;;;5.50;4.80;;;6.60;99.90;;;;;;5051031;28;20256;-68
2020/12/27 02:55:08;;;;;;;6.00;4.23;;;6.60;99.90;;;;;;5049351;28;20207;-64
2020/12/27 02:57:35;;;;;;;5.73;4.63;;;6.60;99.90;;;;;;5049893;28;20231;-66
2020/12/27 03:00:06;;;;;;;6.60;5.20;;;6.60;99.90;;;;;;5051419;28;20199;-68
2020/12/27 03:02:32;;;;;;;7.03;4.43;;;6.60;99.90;;;;;;5049510;28;20956;-67
2020/12/27 03:04:59;;;;;;;4.57;4.00;;;6.60;99.90;;;;;;5051494;28;21075;-68
2020/12/27 03:07:25;;;;;;;4.87;4.23;;;6.60;99.90;;;;;;5047713;28;20614;-65
2020/12/27 03:09:51;;;;;;;4.23;3.83;;;6.60;99.90;;;;;;5048156;28;20816;-66
2020/12/27 03:12:18;;;;;;;5.67;4.43;;;6.60;99.90;;;;;;5048702;28;20756;-65
2020/12/27 03:14:44;;;;;;;4.63;4.23;;;6.50;99.90;;;;;;5050349;28;20203;-63
2020/12/27 03:17:12;;;;;;;7.60;4.73;;;6.40;99.90;;;;;;5051609;28;20223;-68
2020/12/27 03:19:38;;;;;;;5.23;4.83;;;6.40;99.90;;;;;;5051619;28;20202;-67
2020/12/27 03:22:04;;;;;;;5.43;4.90;;;6.30;99.90;;;;;;5049151;28;20203;-69
2020/12/27 03:24:31;;;;;;;4.60;3.97;;;6.30;99.90;;;;;;5048478;28;20199;-66
2020/12/27 03:26:57;;;;;;;5.87;4.77;;;6.20;99.90;;;;;;5051247;28;20199;-66
2020/12/27 03:29:24;;;;;;;7.47;5.13;;;6.20;99.90;;;;;;5047644;28;20304;-67
2020/12/27 03:31:50;;;;;;;4.70;4.30;;;6.10;99.90;;;;;;5051316;28;20679;-63
2020/12/27 03:34:19;;;;;;;5.37;4.77;;;6.00;99.90;;;;;;5051647;28;20233;-66
2020/12/27 03:36:46;;;;;;;6.67;4.93;;;6.10;99.90;;;;;;5053322;28;20229;-65
2020/12/27 03:39:12;;;;;;;7.23;4.43;;;6.00;99.90;;;;;;5053121;28;20202;-66
2020/12/27 03:41:39;;;;;;;5.60;5.10;;;6.00;99.90;;;;;;5053974;28;20203;-64
2020/12/27 03:44:05;;;;;;;5.30;4.67;;;6.00;99.90;;;;;;5051878;28;20191;-63
2020/12/27 03:46:32;;;;;;;6.43;4.90;;;6.00;99.90;;;;;;5048813;28;20203;-63
2020/12/27 03:48:58;;;;;;;5.67;5.03;;;6.00;99.90;;;;;;5048533;28;20199;-63
2020/12/27 03:51:26;;;;;;;5.73;4.83;;;6.00;99.90;;;;;;5048114;28;20203;-64
2020/12/27 03:53:52;;;;;;;5.60;4.80;;;6.10;99.90;;;;;;5048761;28;22267;-65
2020/12/27 03:56:23;;;;;;;7.53;5.53;;;6.10;99.90;;;;;;5051558;28;20260;-65
2020/12/27 03:58:49;;;;;;;5.20;4.67;;;6.10;99.90;;;;;;5048464;28;20675;-64
2020/12/27 04:01:16;;;;;;;5.23;4.43;;;6.10;99.90;;;;;;5050138;28;20576;-67
2020/12/27 04:03:43;;;;;;;5.80;4.10;;;6.10;99.90;;;;;;5047795;28;20803;-67
2020/12/27 04:06:09;;;;;;;5.13;4.30;;;6.10;99.90;;;;;;5049749;28;20203;-67
2020/12/27 04:08:36;;;;;;;4.43;4.00;;;6.10;99.90;;;;;;5049405;28;20232;-65
2020/12/27 04:11:03;;;;;;;4.67;4.20;;;6.20;99.90;;;;;;5048732;28;20289;-67
2020/12/27 04:13:30;;;;;;;5.00;4.10;;;6.20;99.90;;;;;;5053363;28;20206;-66
2020/12/27 04:15:56;;;;;;;5.17;4.27;;;6.20;99.90;;;;;;5053294;28;20198;-67
2020/12/27 04:18:23;;;;;;;4.03;3.73;;;6.20;99.90;;;;;;5051559;28;22043;-69
2020/12/27 04:20:49;;;;;;;3.57;3.23;;;6.20;99.90;;;;;;5054464;28;20683;-66
2020/12/27 04:23:15;;;;;;;5.87;3.23;;;6.20;99.90;;;;;;5054403;28;20665;-67
2020/12/27 04:25:43;;;;;;;4.97;3.47;;;6.30;99.90;;;;;;5048412;28;20732;-65
2020/12/27 04:28:09;;;;;;;4.57;3.60;;;6.40;99.90;;;;;;5050127;28;20209;-64
2020/12/27 04:30:36;;;;;;;3.57;3.27;;;6.40;99.90;;;;;;5051569;28;20202;-67
2020/12/27 04:33:02;;;;;;;4.43;2.70;;;6.40;99.90;;;;;;5053113;28;20219;-64
2020/12/27 04:35:29;;;;;;;4.20;3.50;;;6.40;99.90;;;;;;5053492;28;20199;-63
2020/12/27 04:37:55;;;;;;;3.27;3.03;;;6.30;99.90;;;;;;5051646;28;20238;-67
2020/12/27 04:40:22;;;;;;;5.63;3.27;;;6.30;99.90;;;;;;5048956;28;20199;-65
2020/12/27 04:42:53;;;;;;;4.83;3.10;;;6.30;99.90;;;;;;5048683;28;20230;-63
2020/12/27 04:45:19;;;;;;;4.50;3.33;;;6.30;99.90;;;;;;5049929;28;20198;-65
2020/12/27 04:47:46;;;;;;;2.87;2.67;;;6.30;99.90;;;;;;5048243;28;20214;-67
2020/12/27 04:50:14;;;;;;;3.30;2.60;;;6.30;99.90;;;;;;5048682;28;20202;-66
2020/12/27 04:52:40;;;;;;;2.43;2.23;;;6.20;99.90;;;;;;5050981;28;20198;-66
2020/12/27 04:55:07;;;;;;;4.17;3.10;;;6.20;99.90;;;;;;5049569;28;20355;-67
2020/12/27 04:57:35;;;;;;;3.43;2.60;;;6.30;99.90;;;;;;5050152;28;20251;-62
2020/12/27 05:00:06;;;;;;;4.43;2.70;;;6.30;99.90;;;;;;5049539;28;20199;-64
2020/12/27 05:02:33;;;;;;;3.63;2.47;;;6.20;99.90;;;;;;5053962;28;20282;-67
2020/12/27 05:05:01;;;;;;;3.10;2.47;;;6.20;99.90;;;;;;5054992;28;20222;-64
2020/12/27 05:07:28;;;;;;;4.57;2.30;;;6.20;99.90;;;;;;5055078;28;20207;-65
2020/12/27 05:09:55;;;;;;;2.83;2.53;;;6.20;99.90;;;;;;5052059;28;20574;-67
2020/12/27 05:12:21;;;;;;;2.37;2.07;;;6.20;99.90;;;;;;5054382;28;20210;-67
2020/12/27 05:14:48;;;;;;;2.80;2.47;;;6.20;99.90;;;;;;5052687;28;20191;-67
2020/12/27 05:17:16;;;;;;;3.10;2.00;;;6.20;99.90;;;;;;5049959;28;20219;-67
2020/12/27 05:19:42;;;;;;;2.30;2.10;;;6.20;99.90;;;;;;5052648;28;20560;-66
2020/12/27 05:22:10;;;;;;;2.40;2.07;;;6.20;99.90;;;;;;5050798;28;20210;-67
2020/12/27 05:24:38;;;;;;;2.77;1.90;;;6.20;99.90;;;;;;5050276;28;20202;-63
2020/12/27 05:27:13;;;;;;;2.97;1.60;;;6.20;99.90;;;;;;5051034;28;20191;-66
2020/12/27 05:29:42;;;;;;;2.57;1.60;;;6.20;99.90;;;;;;5052633;28;20194;-65
2020/12/27 05:32:10;;;;;;;4.10;3.60;;;6.30;99.90;;;;;;5053342;28;20261;-63
2020/12/27 05:34:37;;;;;;;3.40;1.80;;;6.30;99.90;;;;;;5054097;28;20795;-65
2020/12/27 05:37:05;;;;;;;2.13;1.70;;;6.30;99.90;;;;;;5050815;28;20227;-66
2020/12/27 05:39:32;;;;;;;1.47;1.20;;;6.30;99.90;;;;;;5054424;28;20198;-67
2020/12/27 05:42:03;;;;;;;1.27;1.17;;;6.30;99.90;;;;;;5050429;28;20203;-63
2020/12/27 05:44:29;;;;;;;1.57;1.40;;;6.30;99.90;;;;;;5050198;28;20190;-66
2020/12/27 05:46:57;;;;;;;2.67;1.23;;;6.30;99.90;;;;;;5053877;28;20214;-65
2020/12/27 05:49:24;;;;;;;4.50;1.20;;;6.30;99.90;;;;;;5050508;28;20215;-63
2020/12/27 05:51:54;;;;;;;2.00;1.40;;;6.30;99.90;;;;;;5051499;28;20195;-63
2020/12/27 05:54:31;;;;;;;1.40;1.30;;;6.30;99.90;;;;;;5051545;28;20210;-65
2020/12/27 05:56:59;;;;;;;1.37;1.27;;;6.30;99.90;;;;;;5049137;28;20211;-67
2020/12/27 05:59:31;;;;;;;0.00;0.00;;;6.30;99.90;;;;;;5051536;28;20559;-66
2020/12/27 06:01:58;;;;;;;0.20;0.20;;;6.30;99.90;;;;;;5054796;28;20318;-67
2020/12/27 06:04:57;;;;;;;0.00;0.00;;;6.20;99.90;;;;;;5051053;28;20217;-65
2020/12/27 06:07:34;;;;;;;0.00;0.00;;;6.30;99.90;;;;;;5050847;28;20294;-66
2020/12/27 06:10:14;;;;;;;0.00;0.00;;;6.30;99.90;;;;;;5050573;28;20202;-66
2020/12/27 06:13:22;;;;;;;0.37;0.37;;;6.30;99.90;;;;;;5053250;28;20250;-69
2020/12/27 06:15:57;;;;;;;0.20;0.07;;;6.30;99.90;;;;;;5050009;28;20200;-67
2020/12/27 06:18:27;;;;;;;0.00;0.00;;;6.20;99.90;;;;;;5051383;28;20191;-66
2020/12/27 06:21:06;;;;;;;21.33;1.37;;;6.20;99.90;;;;;;5050808;28;20227;-68
2020/12/27 06:23:35;;;;;;;0.00;0.00;;;6.20;99.90;;;;;;5051291;28;20191;-68
2020/12/27 06:26:03;;;;;;;0.10;0.10;;;6.30;99.90;;;;;;5053066;28;20206;-68
2020/12/27 06:28:30;;;;;;;0.00;0.00;;;6.30;99.90;;;;;;5050805;28;20260;-65
2020/12/27 06:30:58;;;;;;;0.00;0.00;;;6.20;99.90;;;;;;5052505;28;20733;-67
2020/12/27 06:33:28;;;;;;;0.47;0.30;;;6.20;99.90;;;;;;5050957;28;22017;-65
2020/12/27 06:35:54;;;;;;;0.00;0.00;;;6.20;99.90;;;;;;5051168;28;20210;-68
2020/12/27 06:38:23;;;;;;;0.00;0.00;;;6.20;99.90;;;;;;5054022;28;20223;-68
2020/12/27 06:40:58;;;;;;;0.00;0.00;;;6.20;99.90;;;;;;5056256;28;20207;-68
2020/12/27 06:43:25;;;;;;;0.00;0.00;;;6.20;99.90;;;;;;5054466;28;20197;-68
2020/12/27 06:45:53;;;;;;;0.00;0.00;;;6.20;99.90;;;;;;5055244;28;20214;-68
2020/12/27 06:48:33;;;;;;;0.00;0.00;;;6.20;99.90;;;;;;5054955;28;20203;-69
2020/12/27 06:50:59;;;;;;;3.80;0.70;;;6.30;99.90;;;;;;5054916;28;20206;-67
2020/12/27 06:53:40;;;;;;;0.00;0.00;;;6.20;99.90;;;;;;5053046;28;20575;-68
2020/12/27 06:56:13;;;;;;;0.00;0.00;;;6.20;99.90;;;;;;5054213;28;20191;-65
2020/12/27 06:58:39;;;;;;;0.00;0.00;;;6.20;99.90;;;;;;5054531;28;21695;-69
2020/12/27 07:01:15;;;;;;;0.00;0.00;;;6.30;99.90;;;;;;5056109;28;20669;-69
2020/12/27 07:03:42;;;;;;;0.00;0.00;;;6.30;99.90;;;;;;5053249;28;20279;-67
2020/12/27 07:06:19;;;;;;;0.00;0.00;;;6.40;99.90;;;;;;5053356;28;20235;-64
2020/12/27 07:08:47;;;;;;;0.00;0.00;;;6.40;99.90;;;;;;5052896;28;20222;-67
2020/12/27 07:11:19;;;;;;;0.00;0.00;;;6.40;99.90;;;;;;5052289;28;20238;-69
2020/12/27 07:13:47;;;;;;;0.00;0.00;;;6.50;99.90;;;;;;5051906;28;20202;-65
2020/12/27 07:16:15;;;;;;;0.00;0.00;;;6.50;99.90;;;;;;5054494;28;20195;-68
2020/12/27 07:18:43;;;;;;;0.00;0.00;;;6.50;99.90;;;;;;5055664;28;20211;-67
2020/12/27 07:21:15;;;;;;;0.00;0.00;;;6.50;99.90;;;;;;5052877;28;20745;-68
2020/12/27 07:23:48;;;;;;;0.00;0.00;;;6.50;99.90;;;;;;5053054;28;20206;-67
2020/12/27 07:26:15;;;;;;;0.00;0.00;;;6.60;99.90;;;;;;5054567;28;20200;-66
2020/12/27 07:28:44;;;;;;;0.00;0.00;;;6.60;99.90;;;;;;5052214;28;20198;-69
2020/12/27 07:31:17;;;;;;;0.00;0.00;;;6.60;99.90;;;;;;5053023;28;20664;-69
2020/12/27 07:33:46;;;;;;;0.00;0.00;;;6.70;99.90;;;;;;5057774;28;20253;-67
2020/12/27 07:36:14;;;;;;;0.00;0.00;;;6.60;99.90;;;;;;5054648;28;20230;-67
2020/12/27 07:38:59;;;;;;;0.00;0.00;;;6.60;99.90;;;;;;5054965;28;20771;-67
2020/12/27 07:41:27;;;;;;;0.00;0.00;;;6.60;99.90;;;;;;5057850;28;20306;-68
2020/12/27 07:43:56;;;;;;;0.00;0.00;;;6.60;99.90;;;;;;5053374;28;20211;-65
2020/12/27 07:46:23;;;;;;;0.00;0.00;;;6.60;99.90;;;;;;5055696;28;20196;-68
2020/12/27 07:48:50;;;;;;;0.00;0.00;;;6.50;99.90;;;;;;5051867;28;20231;-68
2020/12/27 07:51:18;;;;;;;0.00;0.00;;;6.60;99.90;;;;;;5048153;28;20261;-68
2020/12/27 07:53:46;;;;;;;0.00;0.00;;;6.50;99.90;;;;;;5048226;28;20199;-67
2020/12/27 07:56:17;;;;;;;0.00;0.00;;;6.50;99.90;;;;;;5051166;28;20532;-66
2020/12/27 07:58:51;;;;;;;0.00;0.00;;;6.60;99.90;;;;;;5054535;28;20670;-65
2020/12/27 08:01:22;;;;;;;0.00;0.00;;;6.50;99.90;;;;;;5056412;28;20210;-65
2020/12/27 08:03:54;;;;;;;0.00;0.00;;;6.50;99.90;;;;;;5053448;28;20722;-67
2020/12/27 08:06:21;;;;;;;0.00;0.00;;;6.50;99.90;;;;;;5052486;28;20191;-67
2020/12/27 08:08:49;;;;;;;0.00;0.00;;;6.50;99.90;;;;;;5046401;28;20227;-67
2020/12/27 08:11:19;;;;;;;0.10;0.10;;;6.50;99.90;;;;;;5047685;28;20677;-63
2020/12/27 08:13:54;;;;;;;0.00;0.00;;;6.50;99.90;;;;;;5047409;28;20856;-64
2020/12/27 08:16:22;;;;;;;0.00;0.00;;;6.60;99.90;;;;;;5048494;28;20200;-63
2020/12/27 08:18:48;;;;;;;0.00;0.00;;;6.60;99.90;;;;;;5050860;28;20349;-64
2020/12/27 08:21:19;;;;;;;0.10;0.10;;;6.60;99.90;;;;;;5053980;28;20210;-62
2020/12/27 08:24:00;;;;;;;0.00;0.00;;;6.60;99.90;;;;;;5054018;28;20242;-71
2020/12/27 08:26:29;;;;;;;0.23;0.23;;;6.60;99.90;;;;;;5053453;28;20196;-62
2020/12/27 08:29:15;;;;;;;0.00;0.00;;;6.60;99.90;;;;;;5053373;28;20195;-63
2020/12/27 08:31:44;;;;;;;0.00;0.00;;;6.60;99.90;;;;;;5051382;28;20203;-65
2020/12/27 08:34:12;;;;;;;0.00;0.00;;;6.70;99.90;;;;;;5055173;28;20256;-65
2020/12/27 08:39:23;;;;;;;0.30;0.30;;;6.60;99.90;;;;;;5030444;28;20198;-66
2020/12/27 08:42:03;;;;;;;1.03;0.50;;;6.60;99.90;;;;;;5057819;28;20199;-64
2020/12/27 08:44:47;;;;;;;0.00;0.00;;;6.60;99.90;;;;;;5054563;28;20196;-62
2020/12/27 08:47:40;;;;;;;0.03;0.03;;;6.60;99.90;;;;;;5046100;28;20576;-66
2020/12/27 08:50:12;;;;;;;0.00;0.00;;;6.60;99.90;;;;;;5050464;28;20563;-62
2020/12/27 08:52:40;;;;;;;0.00;0.00;;;6.60;99.90;;;;;;5059395;28;20199;-63
2020/12/27 08:55:11;;;;;;;0.00;0.00;;;6.60;99.90;;;;;;5055038;28;20660;-64
2020/12/27 08:57:38;;;;;;;0.00;0.00;;;6.60;99.90;;;;;;5056706;28;20211;-62
2020/12/27 09:00:10;;;;;;;0.00;0.00;;;6.70;99.90;;;;;;5060667;28;20207;-67
2020/12/27 09:02:38;;;;;;;0.00;0.00;;;6.70;99.90;;;;;;5059910;28;20207;-63
2020/12/27 09:05:07;;;;;;;0.00;0.00;;;6.70;99.90;;;;;;5055403;28;20248;-66
2020/12/27 09:07:36;;;;;;;0.00;0.00;;;6.70;99.90;;;;;;5055637;28;20191;-64
2020/12/27 09:10:10;;;;;;;0.00;0.00;;;6.70;99.90;;;;;;5051891;28;20195;-61
2020/12/27 09:12:38;;;;;;;0.10;0.10;;;6.80;99.90;;;;;;5057773;28;20202;-59
2020/12/27 09:15:28;;;;;;;0.00;0.00;;;6.80;99.90;;;;;;5051065;28;20198;-64
2020/12/27 09:18:01;;;;;;;0.00;0.00;;;6.80;99.90;;;;;;5050137;28;20222;-61
2020/12/27 09:20:29;;;;;;;0.10;0.10;;;6.80;99.90;;;;;;5052198;28;20194;-60
2020/12/27 09:22:56;;;;;;;0.00;0.00;;;6.80;99.90;;;;;;5052650;28;20195;-60
2020/12/27 09:25:24;;;;;;;0.00;0.00;;;6.80;99.90;;;;;;5052595;28;20591;-56
2020/12/27 09:27:52;;;;;;;0.90;0.90;;;6.80;99.90;;;;;;5050251;28;20656;-58
2020/12/27 09:30:21;;;;;;;1.23;1.13;;;6.80;99.90;;;;;;5050971;28;20214;-58
2020/12/27 09:32:48;;;;;;;1.17;1.10;;;6.80;99.90;;;;;;5049352;28;20202;-59
2020/12/27 09:35:23;;;;;;;1.37;1.27;;;6.80;99.90;;;;;;5049952;28;20660;-59
2020/12/27 09:37:50;;;;;;;1.23;1.20;;;6.80;99.90;;;;;;5049830;28;20234;-60
2020/12/27 09:40:18;;;;;;;1.40;1.30;;;6.80;99.90;;;;;;5050167;28;20638;-61
2020/12/27 09:42:45;;;;;;;1.87;1.30;;;6.80;99.90;;;;;;5053415;28;20210;-58
2020/12/27 09:45:20;;;;;;;3.43;1.60;;;6.70;99.90;;;;;;5055275;28;20208;-60
2020/12/27 09:47:51;;;;;;;2.03;1.40;;;6.80;99.90;;;;;;5052802;28;20214;-61
2020/12/27 09:50:26;;;;;;;2.80;1.30;;;6.80;99.90;;;;;;5054280;28;20207;-59
2020/12/27 09:52:52;;;;;;;1.60;1.10;;;6.80;99.90;;;;;;5049968;28;20312;-62
2020/12/27 09:55:19;;;;;;;1.00;0.93;;;6.80;99.90;;;;;;5049093;28;20585;-63
2020/12/27 09:57:45;;;;;;;1.00;1.00;;;6.80;99.90;;;;;;5048270;28;20223;-59
2020/12/27 10:00:12;;;;;;;1.13;1.03;;;6.80;99.90;;;;;;5049169;28;20207;-63
2020/12/27 10:02:39;;;;;;;2.87;1.20;;;6.80;99.90;;;;;;5051402;28;20211;-59
2020/12/27 10:05:06;;;;;;;3.60;1.33;;;6.90;99.90;;;;;;5052215;28;21177;-64
2020/12/27 10:07:33;;;;;;;0.97;0.73;;;6.90;99.90;;;;;;5055992;28;20220;-65
2020/12/27 10:10:00;;;;;;;0.77;0.77;;;6.90;99.90;;;;;;5053375;28;20210;-65
2020/12/27 10:12:27;;;;;;;0.90;0.90;;;6.90;99.90;;;;;;5062504;28;20236;-67
2020/12/27 10:14:53;;;;;;;0.80;0.80;;;7.00;99.90;;;;;;5063336;28;20553;-73
2020/12/27 10:17:20;;;;;;;3.67;1.40;;;7.00;99.90;;;;;;5051110;28;20245;-60
2020/12/27 10:19:47;;;;;;;0.97;0.93;;;6.90;99.90;;;;;;5052088;28;20214;-62
2020/12/27 10:22:13;;;;;;;1.93;1.00;;;6.90;99.90;;;;;;5056343;28;20208;-60
2020/12/27 10:24:41;;;;;;;0.77;0.77;;;6.90;99.90;;;;;;5056617;28;20205;-59
2020/12/27 10:27:07;;;;;;;0.00;0.00;;;6.90;99.90;;;;;;5056321;28;20553;-60
2020/12/27 10:29:34;;;;;;;0.00;0.00;;;6.90;99.90;;;;;;5058418;28;20664;-60
2020/12/27 10:32:03;;;;;;;0.00;0.00;;;6.90;99.90;;;;;;5056699;28;20253;-63
2020/12/27 10:34:30;;;;;;;0.00;0.00;;;6.90;99.90;;;;;;5058075;28;20207;-60
2020/12/27 10:36:57;;;;;;;0.00;0.00;;;6.90;99.90;;;;;;5058360;28;20237;-65
2020/12/27 10:39:24;;;;;;;0.00;0.00;;;6.90;99.90;;;;;;5057029;28;20202;-60
2020/12/27 10:41:53;;;;;;;0.00;0.00;;;6.90;99.90;;;;;;5056303;28;20548;-65
2020/12/27 10:44:21;;;;;;;0.00;0.00;;;6.90;99.90;;;;;;5057800;28;20192;-61
2020/12/27 10:46:49;;;;;;;0.00;0.00;;;6.90;99.90;;;;;;5055721;28;20272;-61
2020/12/27 10:49:17;;;;;;;0.00;0.00;;;6.90;99.90;;;;;;5058149;28;20206;-61
2020/12/27 10:51:43;;;;;;;0.00;0.00;;;6.90;99.90;;;;;;5059301;28;20211;-64
2020/12/27 10:54:11;;;;;;;0.00;0.00;;;6.90;99.90;;;;;;5061652;28;20664;-63
2020/12/27 10:56:39;;;;;;;0.00;0.00;;;6.90;99.90;;;;;;5061716;28;20307;-63
2020/12/27 10:59:06;;;;;;;0.00;0.00;;;6.90;99.90;;;;;;5062176;28;20299;-63
2020/12/27 11:01:33;;;;;;;0.00;0.00;;;6.90;99.90;;;;;;5061566;28;20199;-61
2020/12/27 11:03:59;;;;;;;0.00;0.00;;;6.90;99.90;;;;;;5055343;28;20657;-65
2020/12/27 11:06:30;;;;;;;0.10;0.10;;;6.90;99.90;;;;;;5054994;28;20196;-62
2020/12/27 11:08:56;;;;;;;0.00;0.00;;;6.90;99.90;;;;;;5053943;28;20324;-62
2020/12/27 11:11:23;;;;;;;0.00;0.00;;;6.90;99.90;;;;;;5048279;28;20196;-65
2020/12/27 11:13:50;;;;;;;0.00;0.00;;;6.90;99.90;;;;;;5052373;28;20276;-65
2020/12/27 11:16:17;;;;;;;0.00;0.00;;;6.90;99.90;;;;;;5051825;28;20203;-63
2020/12/27 11:18:44;;;;;;;0.00;0.00;;;6.90;99.90;;;;;;5048411;28;20223;-63
2020/12/27 11:21:10;;;;;;;0.20;0.20;;;6.90;99.90;;;;;;5053037;28;20609;-63
2020/12/27 11:23:37;;;;;;;0.30;0.30;;;6.90;99.90;;;;;;5050744;28;20199;-65
2020/12/27 11:26:04;;;;;;;0.00;0.00;;;6.90;99.90;;;;;;5050591;28;20206;-66
2020/12/27 11:28:31;;;;;;;3.13;0.47;;;6.90;99.90;;;;;;5050902;28;20310;-63
2020/12/27 11:30:57;;;;;;;0.00;0.00;;;6.90;99.90;;;;;;5052019;28;20195;-64
2020/12/27 11:33:25;;;;;;;0.00;0.00;;;6.90;99.90;;;;;;5051529;28;20225;-64
2020/12/27 11:35:51;;;;;;;0.00;0.00;;;6.90;99.90;;;;;;5053223;28;22073;-66
2020/12/27 11:38:18;;;;;;;0.00;0.00;;;6.90;99.90;;;;;;5053764;28;22790;-64
2020/12/27 11:40:44;;;;;;;0.00;0.00;;;6.70;99.90;;;;;;5052410;28;20227;-66
2020/12/27 11:43:11;;;;;;;0.00;0.00;;;6.20;99.90;;;;;;5052968;28;20256;-65
2020/12/27 11:45:37;;;;;;;0.60;0.60;;;5.70;99.90;;;;;;5049991;28;20277;-62
2020/12/27 11:48:04;;;;;;;0.00;0.00;;;5.60;99.90;;;;;;5053772;28;20210;-66
2020/12/27 11:50:31;;;;;;;0.00;0.00;;;5.50;99.90;;;;;;5050922;28;20336;-64
2020/12/27 11:52:58;;;;;;;0.00;0.00;;;5.50;99.90;;;;;;5051575;28;20211;-66
2020/12/27 11:55:24;;;;;;;0.00;0.00;;;5.50;99.90;;;;;;5051072;28;20203;-66
2020/12/27 11:57:52;;;;;;;0.00;0.00;;;5.50;99.90;;;;;;5050669;28;20237;-65
2020/12/27 12:00:19;;;;;;;0.00;0.00;;;5.50;99.90;;;;;;5052048;28;20293;-66
2020/12/27 12:02:47;;;;;;;0.00;0.00;;;5.50;99.90;;;;;;5054651;28;20226;-64
2020/12/27 12:05:14;;;;;;;0.00;0.00;;;5.50;99.90;;;;;;5060561;28;20202;-65
2020/12/27 12:07:41;;;;;;;0.00;0.00;;;5.60;99.90;;;;;;5059281;28;20203;-66
2020/12/27 12:10:08;;;;;;;0.10;0.10;;;5.70;99.90;;;;;;5058436;28;20278;-67
2020/12/27 12:12:34;;;;;;;0.00;0.00;;;5.70;99.90;;;;;;5048663;28;20743;-66
2020/12/27 12:15:01;;;;;;;0.00;0.00;;;5.70;99.90;;;;;;5049869;28;20199;-64
2020/12/27 12:17:27;;;;;;;0.00;0.00;;;5.70;99.90;;;;;;5050247;28;20223;-66
2020/12/27 12:19:54;;;;;;;0.00;0.00;;;5.70;99.90;;;;;;5049394;28;20231;-66
2020/12/27 12:22:21;;;;;;;0.00;0.00;;;5.70;99.90;;;;;;5058749;28;20216;-64
2020/12/27 12:24:48;;;;;;;0.00;0.00;;;5.70;99.90;;;;;;5058916;28;20199;-65
2020/12/27 12:27:14;;;;;;;0.00;0.00;;;5.70;99.90;;;;;;5060505;28;20226;-64
2020/12/27 12:29:41;;;;;;;0.00;0.00;;;5.70;99.90;;;;;;5060636;28;20199;-66
2020/12/27 12:32:07;;;;;;;0.00;0.00;;;5.70;99.90;;;;;;5058670;28;20214;-70
2020/12/27 12:34:34;;;;;;;0.00;0.00;;;5.70;99.90;;;;;;5052774;28;20194;-68
2020/12/27 12:37:00;;;;;;;0.00;0.00;;;5.80;99.90;;;;;;5050330;28;20230;-67
2020/12/27 12:39:27;;;;;;;0.00;0.00;;;5.70;99.90;;;;;;5050727;28;20199;-66
2020/12/27 12:41:57;;;;;;;0.00;0.00;;;5.70;99.90;;;;;;5050863;28;20202;-67
2020/12/27 12:44:24;;;;;;;0.00;0.00;;;5.70;99.90;;;;;;5051221;28;20218;-66
2020/12/27 12:46:51;;;;;;;0.00;0.00;;;5.70;99.90;;;;;;5051594;28;20675;-66
2020/12/27 12:49:17;;;;;;;0.00;0.00;;;5.70;99.90;;;;;;5050133;28;20210;-68
2020/12/27 12:51:44;;;;;;;0.00;0.00;;;5.70;99.90;;;;;;5047396;28;20244;-66
2020/12/27 12:54:10;;;;;;;0.00;0.00;;;5.70;99.90;;;;;;5052180;28;20207;-66
2020/12/27 12:56:37;;;;;;;0.00;0.00;;;5.70;99.90;;;;;;5049121;28;21864;-67
2020/12/27 12:59:04;;;;;;;0.00;0.00;;;5.70;99.90;;;;;;5050316;28;20246;-67
2020/12/27 13:01:32;;;;;;;0.00;0.00;;;5.70;99.90;;;;;;5051036;28;21888;-67
2020/12/27 13:03:58;;;;;;;0.00;0.00;;;5.70;99.90;;;;;;5050291;28;20217;-66
2020/12/27 13:06:25;;;;;;;0.00;0.00;;;5.80;99.90;;;;;;5050000;28;20210;-68